VLC weather

Valencia Airport
Valencia, Valencia, Spain

Public forecast

Using degrees Celsius for public forecast. Weather courtesy of forecast.io.

METAR (pilot weather report)

Retrieved 2019/03/21 05:30 UTC (5 minutes ago):

LEVC 210530Z 30006KT 9999 FEW040 06/03 Q1027 NOSIG

TAF (pilot weather forecast)

Forecast is more than 12 hours old.

Retrieved 2019/03/20 00:27 UTC (1 day ago):

TAF LEVC 202300Z 2100/2124 31006KT 9999 FEW030 TX17/2113Z TN05/2106Z BECMG 2109/2111 07013KT TEMPO 2111/2116 07013G25KT BECMG 2118/2120 36004KT